createdAt,value
2024-03-22T00:00:07.526Z,11.40
2024-03-22T00:05:14.904Z,11.90
2024-03-22T00:10:20.680Z,13.20
2024-03-22T00:15:26.274Z,12.17
2024-03-22T00:20:35.130Z,11.20
2024-03-22T00:25:39.123Z,10.73
2024-03-22T00:30:45.192Z,10.20
2024-03-22T00:35:50.762Z,10.47
2024-03-22T00:40:56.631Z,9.77
2024-03-22T00:46:04.034Z,9.53
2024-03-22T00:51:09.702Z,8.53
2024-03-22T00:56:15.363Z,9.57
2024-03-22T01:01:21.041Z,8.27
2024-03-22T01:06:28.343Z,9.23
2024-03-22T01:11:33.920Z,8.10
2024-03-22T01:16:41.112Z,10.13
2024-03-22T01:21:46.677Z,9.23
2024-03-22T01:26:52.241Z,9.60
2024-03-22T01:31:57.818Z,9.40
2024-03-22T01:37:04.119Z,9.03
2024-03-22T01:42:09.760Z,8.90
2024-03-22T01:47:15.536Z,9.47
2024-03-22T01:52:21.179Z,9.37
2024-03-22T01:57:26.956Z,9.20
2024-03-22T02:02:32.636Z,9.43
2024-03-22T02:07:38.386Z,10.13
2024-03-22T02:12:44.162Z,9.00
2024-03-22T02:17:49.827Z,10.27
2024-03-22T02:22:55.811Z,9.13
2024-03-22T02:28:01.479Z,8.40
2024-03-22T02:33:07.554Z,9.83
2024-03-22T02:38:13.221Z,9.60
2024-03-22T02:43:20.374Z,9.60
2024-03-22T02:48:26.500Z,10.20
2024-03-22T02:53:32.158Z,10.07
2024-03-22T02:58:37.953Z,10.30
2024-03-22T03:03:43.734Z,9.87
2024-03-22T03:08:49.573Z,8.97
2024-03-22T03:13:55.389Z,9.87
2024-03-22T03:19:02.740Z,10.57
2024-03-22T03:24:10.164Z,10.33
2024-03-22T03:29:16.029Z,10.63
2024-03-22T03:34:22.000Z,9.90
2024-03-22T03:39:27.683Z,11.03
2024-03-22T03:44:33.339Z,9.67
2024-03-22T03:49:39.005Z,10.73
2024-03-22T03:54:44.692Z,10.57
2024-03-22T03:59:50.441Z,10.87
2024-03-22T04:04:56.515Z,9.93
2024-03-22T04:10:02.190Z,11.83
2024-03-22T04:15:09.002Z,10.37
2024-03-22T04:20:15.129Z,10.63
2024-03-22T04:25:21.234Z,10.27
2024-03-22T04:30:27.315Z,11.50
2024-03-22T04:35:32.984Z,9.97
2024-03-22T04:40:38.542Z,11.60
2024-03-22T04:45:45.806Z,11.40
2024-03-22T04:50:52.753Z,10.57
2024-03-22T04:55:58.338Z,10.83
2024-03-22T05:01:03.976Z,11.13
2024-03-22T05:06:09.747Z,11.00
2024-03-22T05:11:15.474Z,10.60
2024-03-22T05:16:21.388Z,10.87
2024-03-22T05:21:27.056Z,10.87
2024-03-22T05:26:34.261Z,10.47
2024-03-22T05:31:42.894Z,10.73
2024-03-22T05:36:49.057Z,10.70
2024-03-22T05:41:55.475Z,11.27
2024-03-22T05:47:01.636Z,10.60
2024-03-22T05:52:07.495Z,11.27
2024-03-22T05:57:13.691Z,11.33
2024-03-22T06:02:19.504Z,12.00
2024-03-22T06:07:25.133Z,11.47
2024-03-22T06:12:30.794Z,10.80
2024-03-22T06:17:36.418Z,11.10
2024-03-22T06:22:42.198Z,11.33
2024-03-22T06:27:47.802Z,11.67
2024-03-22T06:32:53.368Z,11.47
2024-03-22T06:37:58.934Z,13.03
2024-03-22T06:43:04.701Z,12.17
2024-03-22T06:48:10.474Z,11.83
2024-03-22T06:53:16.030Z,12.30
2024-03-22T06:58:21.700Z,12.03
2024-03-22T07:03:27.275Z,11.87
2024-03-22T07:08:33.236Z,13.23
2024-03-22T07:13:38.812Z,13.23
2024-03-22T07:18:44.801Z,12.50
2024-03-22T07:23:50.472Z,12.57
2024-03-22T07:28:56.214Z,13.03
2024-03-22T07:34:01.882Z,13.73
2024-03-22T07:39:10.978Z,12.80
2024-03-22T07:44:18.544Z,12.90
2024-03-22T07:49:24.108Z,14.37
2024-03-22T07:54:29.662Z,15.10
2024-03-22T07:59:35.953Z,14.07
2024-03-22T08:04:41.716Z,15.63
2024-03-22T08:09:47.380Z,16.97
2024-03-22T08:14:53.490Z,16.83
2024-03-22T08:19:59.333Z,15.03
2024-03-22T08:25:05.680Z,15.50
2024-03-22T08:30:12.732Z,15.17
2024-03-22T08:35:18.489Z,13.63
2024-03-22T08:40:24.479Z,14.23
2024-03-22T08:45:30.234Z,18.63
2024-03-22T08:50:36.307Z,19.17
2024-03-22T08:55:49.855Z,16.60
2024-03-22T09:00:57.475Z,18.60
2024-03-22T09:06:08.837Z,19.67
2024-03-22T09:11:11.323Z,17.90
2024-03-22T09:16:17.273Z,18.20
2024-03-22T09:21:23.210Z,17.67
2024-03-22T09:26:28.893Z,16.63
2024-03-22T09:31:34.702Z,13.53
2024-03-22T09:36:40.319Z,14.97
2024-03-22T09:41:49.719Z,14.60
2024-03-22T09:46:54.933Z,16.23
2024-03-22T09:52:00.932Z,17.10
2024-03-22T09:57:08.539Z,16.60
2024-03-22T10:02:15.298Z,18.60
2024-03-22T10:07:21.038Z,12.13
2024-03-22T10:12:27.172Z,12.30
2024-03-22T10:17:32.957Z,9.60
2024-03-22T10:22:38.707Z,17.03
2024-03-22T10:27:44.409Z,16.53
2024-03-22T10:32:54.077Z,15.17
2024-03-22T10:37:59.716Z,20.23
2024-03-22T10:43:05.767Z,17.10
2024-03-22T10:48:12.805Z,15.73
2024-03-22T10:53:25.731Z,16.37
2024-03-22T10:58:31.986Z,14.70
2024-03-22T11:03:38.258Z,16.20
2024-03-22T11:08:43.931Z,16.40
2024-03-22T11:13:50.520Z,15.90
2024-03-22T11:18:56.828Z,15.73
2024-03-22T11:24:05.896Z,16.40
2024-03-22T11:29:11.726Z,15.47
2024-03-22T11:34:17.715Z,16.63
2024-03-22T11:39:24.713Z,15.60
2024-03-22T11:44:31.028Z,15.27
2024-03-22T11:49:37.151Z,15.30
2024-03-22T11:54:42.923Z,17.70
2024-03-22T12:00:02.566Z,18.13
2024-03-22T12:04:55.980Z,15.63
2024-03-22T12:10:01.661Z,15.93
2024-03-22T12:15:08.184Z,17.90
2024-03-22T12:20:15.399Z,19.83
2024-03-22T12:25:21.018Z,17.03
2024-03-22T12:30:27.527Z,23.07
2024-03-22T12:35:33.998Z,16.77
2024-03-22T12:40:40.631Z,12.50
2024-03-22T12:45:46.348Z,10.83
2024-03-22T12:50:52.318Z,9.67
2024-03-22T12:55:57.914Z,11.83
2024-03-22T13:01:04.486Z,16.03
2024-03-22T13:06:10.248Z,18.80
2024-03-22T13:11:16.016Z,17.00
2024-03-22T13:16:21.582Z,15.63
2024-03-22T13:21:28.389Z,15.77
2024-03-22T13:26:34.156Z,16.00
2024-03-22T13:31:43.257Z,18.13
2024-03-22T13:36:48.253Z,16.30
2024-03-22T13:41:53.926Z,17.80
2024-03-22T13:46:59.473Z,16.63
2024-03-22T13:52:09.594Z,17.40
2024-03-22T13:57:15.637Z,17.03
2024-03-22T14:02:21.515Z,17.20
2024-03-22T14:07:28.708Z,16.93
2024-03-22T14:12:34.388Z,18.10
2024-03-22T14:17:40.059Z,15.33
2024-03-22T14:22:45.882Z,17.00
2024-03-22T14:27:53.449Z,17.20
2024-03-22T14:32:59.294Z,16.67
2024-03-22T14:38:05.223Z,16.23
2024-03-22T14:43:12.707Z,16.77
2024-03-22T14:48:18.383Z,18.40
2024-03-22T14:53:24.617Z,15.67
2024-03-22T14:58:31.833Z,19.10
2024-03-22T15:03:37.905Z,16.97
2024-03-22T15:08:43.572Z,18.37
2024-03-22T15:13:49.661Z,16.20
2024-03-22T15:18:55.305Z,16.80
2024-03-22T15:24:00.997Z,17.50
2024-03-22T15:29:06.862Z,17.33
2024-03-22T15:34:12.644Z,18.27
2024-03-22T15:39:19.491Z,15.67
2024-03-22T15:44:27.436Z,15.07
2024-03-22T15:49:33.008Z,17.17
2024-03-22T15:54:39.072Z,21.13
2024-03-22T15:59:45.610Z,16.57
2024-03-22T16:04:52.867Z,15.73
2024-03-22T16:09:58.646Z,16.87
2024-03-22T16:15:06.063Z,16.10
2024-03-22T16:20:13.219Z,16.20
2024-03-22T16:25:18.861Z,18.90
2024-03-22T16:30:24.520Z,15.70
2024-03-22T16:35:30.357Z,14.40
2024-03-22T16:40:36.037Z,14.70
2024-03-22T16:45:41.804Z,15.43
2024-03-22T16:50:48.015Z,13.77
2024-03-22T16:55:53.680Z,13.13
2024-03-22T17:01:10.083Z,13.07
2024-03-22T17:06:21.504Z,11.93
2024-03-22T17:11:23.440Z,14.10
2024-03-22T17:16:29.108Z,13.00
2024-03-22T17:21:34.779Z,12.80
2024-03-22T17:26:43.619Z,13.50
2024-03-22T17:31:49.439Z,12.27
2024-03-22T17:36:56.292Z,18.70
2024-03-22T17:42:04.329Z,19.20
2024-03-22T17:47:10.191Z,19.50
2024-03-22T17:52:17.067Z,19.87
2024-03-22T17:57:25.792Z,21.17
2024-03-22T18:02:31.884Z,20.07
2024-03-22T18:07:37.708Z,18.20
2024-03-22T18:12:43.381Z,18.47
2024-03-22T18:17:49.372Z,18.53
2024-03-22T18:22:56.497Z,18.43
2024-03-22T18:28:02.483Z,24.77
2024-03-22T18:33:08.276Z,18.80
2024-03-22T18:38:14.837Z,19.33
2024-03-22T18:43:20.604Z,16.83
2024-03-22T18:48:26.813Z,15.93
2024-03-22T18:53:32.450Z,15.00
2024-03-22T18:58:38.216Z,13.37
2024-03-22T19:03:44.005Z,15.53
2024-03-22T19:08:49.764Z,15.90
2024-03-22T19:13:55.835Z,16.00
2024-03-22T19:19:01.617Z,16.00
2024-03-22T19:24:07.906Z,13.80
2024-03-22T19:29:15.491Z,15.87
2024-03-22T19:34:21.275Z,17.07
2024-03-22T19:39:27.247Z,17.97
2024-03-22T19:44:33.429Z,17.27
2024-03-22T19:49:39.195Z,17.10
2024-03-22T19:54:44.969Z,15.33
2024-03-22T19:59:52.207Z,22.60
2024-03-22T20:04:58.064Z,16.70
2024-03-22T20:10:04.608Z,15.57
2024-03-22T20:15:11.896Z,16.80
2024-03-22T20:20:18.048Z,14.57
2024-03-22T20:25:24.808Z,16.50
2024-03-22T20:30:32.005Z,15.43
2024-03-22T20:35:37.619Z,16.83
2024-03-22T20:40:44.017Z,14.60
2024-03-22T20:45:50.339Z,14.30
2024-03-22T20:50:56.725Z,14.30
2024-03-22T20:56:03.201Z,13.60
2024-03-22T21:01:10.006Z,14.80
2024-03-22T21:06:16.430Z,13.53
2024-03-22T21:11:22.876Z,15.20
2024-03-22T21:16:29.251Z,15.50
2024-03-22T21:21:35.667Z,15.80
2024-03-22T21:26:42.202Z,13.50
2024-03-22T21:31:48.713Z,15.87
2024-03-22T21:36:56.738Z,14.90
2024-03-22T21:42:03.087Z,17.60
2024-03-22T21:47:09.713Z,18.83
2024-03-22T21:52:16.313Z,19.70
2024-03-22T21:57:22.751Z,12.07
2024-03-22T22:02:29.091Z,10.00
2024-03-22T22:07:35.553Z,11.57
2024-03-22T22:12:43.087Z,12.47
2024-03-22T22:17:51.093Z,13.93
2024-03-22T22:22:57.485Z,11.77
2024-03-22T22:28:03.994Z,12.13
2024-03-22T22:33:11.874Z,9.63
2024-03-22T22:38:18.253Z,10.30
2024-03-22T22:43:24.658Z,8.90
2024-03-22T22:48:31.136Z,7.70
2024-03-22T22:53:37.506Z,6.37
2024-03-22T22:58:43.994Z,7.27
2024-03-22T23:03:50.388Z,5.80
2024-03-22T23:08:56.765Z,6.53
2024-03-22T23:14:02.947Z,5.43
2024-03-22T23:19:09.326Z,7.07
2024-03-22T23:24:15.736Z,5.40
2024-03-22T23:29:22.912Z,6.10
2024-03-22T23:34:29.352Z,5.07
2024-03-22T23:39:35.894Z,4.67
2024-03-22T23:44:42.272Z,5.00
2024-03-22T23:49:48.655Z,4.40
2024-03-22T23:54:56.831Z,3.83
